createdAt,value
2023-07-06T00:00:20.649Z,18.88
2023-07-06T00:01:24.733Z,18.88
2023-07-06T00:02:26.411Z,18.85
2023-07-06T00:03:28.148Z,18.87
2023-07-06T00:04:29.544Z,18.87
2023-07-06T00:05:30.947Z,18.85
2023-07-06T00:06:32.336Z,18.83
2023-07-06T00:07:33.684Z,18.82
2023-07-06T00:08:35.791Z,18.84
2023-07-06T00:09:37.224Z,18.88
2023-07-06T00:10:39.397Z,18.83
2023-07-06T00:11:41.409Z,18.82
2023-07-06T00:12:43.253Z,18.83
2023-07-06T00:13:44.661Z,18.85
2023-07-06T00:14:46.124Z,18.84
2023-07-06T00:15:47.905Z,18.82
2023-07-06T00:16:49.871Z,18.85
2023-07-06T00:17:51.622Z,18.84
2023-07-06T00:18:53.031Z,18.84
2023-07-06T00:19:54.378Z,18.82
2023-07-06T00:20:56.737Z,18.83
2023-07-06T00:21:58.353Z,18.84
2023-07-06T00:23:00.745Z,18.84
2023-07-06T00:24:02.128Z,18.85
2023-07-06T00:25:04.032Z,18.82
2023-07-06T00:26:05.386Z,18.84
2023-07-06T00:27:09.678Z,18.82
2023-07-06T00:28:11.908Z,18.80
2023-07-06T00:29:15.013Z,18.80
2023-07-06T00:30:16.541Z,18.81
2023-07-06T00:31:19.555Z,18.81
2023-07-06T00:32:21.060Z,18.81
2023-07-06T00:33:24.321Z,18.82
2023-07-06T00:34:25.797Z,18.82
2023-07-06T00:35:27.236Z,18.80
2023-07-06T00:36:28.768Z,18.74
2023-07-06T00:37:30.187Z,18.73
2023-07-06T00:38:32.081Z,18.73
2023-07-06T00:39:33.502Z,18.76
2023-07-06T00:40:34.927Z,18.72
2023-07-06T00:41:36.254Z,18.71
2023-07-06T00:42:43.235Z,18.72
2023-07-06T00:43:52.530Z,18.72
2023-07-06T00:44:56.560Z,18.72
2023-07-06T00:46:02.804Z,18.73
2023-07-06T00:47:04.429Z,18.72
2023-07-06T00:48:18.540Z,18.69
2023-07-06T00:49:20.039Z,18.68
2023-07-06T00:50:24.694Z,18.67
2023-07-06T00:51:29.881Z,18.68
2023-07-06T00:52:31.850Z,18.67
2023-07-06T00:53:38.551Z,18.65
2023-07-06T00:54:41.765Z,18.65
2023-07-06T00:55:43.302Z,18.65
2023-07-06T00:56:47.668Z,18.63
2023-07-06T00:57:52.281Z,18.61
2023-07-06T00:58:57.127Z,18.62
2023-07-06T00:59:59.737Z,18.58
2023-07-06T01:01:05.087Z,18.56
2023-07-06T01:02:09.526Z,18.53
2023-07-06T01:03:11.744Z,18.54
2023-07-06T01:04:16.352Z,18.54
2023-07-06T01:05:18.323Z,18.53
2023-07-06T01:06:34.648Z,18.53
2023-07-06T01:07:38.824Z,18.51
2023-07-06T01:08:42.031Z,18.46
2023-07-06T01:09:44.210Z,18.45
2023-07-06T01:10:46.840Z,18.44
2023-07-06T01:11:48.878Z,18.41
2023-07-06T01:12:50.318Z,18.38
2023-07-06T01:13:54.008Z,18.37
2023-07-06T01:14:56.908Z,18.32
2023-07-06T01:16:17.179Z,18.32
2023-07-06T01:17:27.109Z,18.29
2023-07-06T01:18:47.536Z,18.24
2023-07-06T01:20:12.849Z,18.16
2023-07-06T01:21:25.066Z,18.13
2023-07-06T01:22:49.319Z,18.11
2023-07-06T01:24:11.806Z,18.05
2023-07-06T01:25:34.630Z,18.02
2023-07-06T01:27:00.932Z,17.96
2023-07-06T01:28:36.061Z,17.95
2023-07-06T01:30:02.403Z,17.95
2023-07-06T01:31:26.578Z,17.91
2023-07-06T01:32:32.759Z,17.86
2023-07-06T01:33:40.872Z,17.89
2023-07-06T01:34:56.638Z,17.88
2023-07-06T01:36:12.520Z,17.89
2023-07-06T01:37:20.028Z,17.87
2023-07-06T01:38:21.421Z,17.84
2023-07-06T01:39:25.521Z,17.82
2023-07-06T01:40:27.352Z,17.81
2023-07-06T01:41:28.743Z,17.78
2023-07-06T01:42:32.190Z,17.77
2023-07-06T01:43:34.334Z,17.79
2023-07-06T01:44:37.377Z,17.80
2023-07-06T01:45:38.859Z,17.78
2023-07-06T01:46:46.498Z,17.77
2023-07-06T01:47:53.851Z,17.75
2023-07-06T01:48:55.529Z,17.74
2023-07-06T01:49:59.180Z,17.73
2023-07-06T01:51:09.645Z,17.72
2023-07-06T01:52:22.305Z,17.71
2023-07-06T01:53:36.018Z,17.72
2023-07-06T01:54:56.629Z,17.72
2023-07-06T01:56:08.852Z,17.71
2023-07-06T01:57:21.356Z,17.70
2023-07-06T01:58:42.554Z,17.69
2023-07-06T01:59:47.136Z,17.69
2023-07-06T02:00:53.703Z,17.67
2023-07-06T02:01:59.011Z,17.67
2023-07-06T02:03:02.311Z,17.70
2023-07-06T02:04:07.086Z,17.71
2023-07-06T02:05:08.959Z,17.73
2023-07-06T02:06:11.989Z,17.71
2023-07-06T02:07:16.894Z,17.74
2023-07-06T02:08:19.686Z,17.71
2023-07-06T02:09:21.633Z,17.70
2023-07-06T02:10:22.963Z,17.66
2023-07-06T02:11:24.388Z,17.70
2023-07-06T02:12:25.896Z,17.71
2023-07-06T02:13:27.233Z,17.66
2023-07-06T02:14:28.580Z,17.69
2023-07-06T02:15:30.683Z,17.68
2023-07-06T02:16:32.092Z,17.63
2023-07-06T02:17:33.612Z,17.61
2023-07-06T02:18:35.035Z,17.60
2023-07-06T02:19:37.368Z,17.60
2023-07-06T02:20:38.753Z,17.57
2023-07-06T02:21:40.812Z,17.60
2023-07-06T02:22:43.286Z,17.57
2023-07-06T02:23:44.908Z,17.57
2023-07-06T02:24:46.273Z,17.50
2023-07-06T02:25:48.020Z,17.45
2023-07-06T02:26:51.314Z,17.40
2023-07-06T02:27:52.955Z,17.38
2023-07-06T02:28:54.391Z,17.38
2023-07-06T02:29:55.766Z,17.33
2023-07-06T02:30:59.411Z,17.33
2023-07-06T02:32:00.836Z,17.28
2023-07-06T02:33:02.332Z,17.25
2023-07-06T02:34:03.684Z,17.23
2023-07-06T02:35:06.692Z,17.21
2023-07-06T02:36:08.090Z,17.19
2023-07-06T02:37:09.462Z,17.18
2023-07-06T02:38:10.855Z,17.15
2023-07-06T02:39:12.202Z,17.13
2023-07-06T02:40:13.601Z,17.14
2023-07-06T02:41:15.976Z,17.16
2023-07-06T02:42:18.686Z,17.16
2023-07-06T02:43:20.085Z,17.17
2023-07-06T02:44:22.197Z,17.18
2023-07-06T02:45:23.531Z,17.18
2023-07-06T02:46:25.626Z,17.18
2023-07-06T02:47:27.227Z,17.20
2023-07-06T02:48:28.627Z,17.21
2023-07-06T02:49:30.175Z,17.19
2023-07-06T02:50:32.590Z,17.24
2023-07-06T02:51:33.944Z,17.24
2023-07-06T02:52:35.555Z,17.24
2023-07-06T02:53:37.101Z,17.24
2023-07-06T02:54:38.447Z,17.24
2023-07-06T02:55:39.826Z,17.21
2023-07-06T02:56:41.175Z,17.21
2023-07-06T02:57:42.503Z,17.20
2023-07-06T02:58:43.913Z,17.19
2023-07-06T02:59:45.250Z,17.17
2023-07-06T03:00:46.622Z,17.11
2023-07-06T03:01:48.542Z,17.10
2023-07-06T03:02:49.962Z,17.09
2023-07-06T03:03:51.456Z,17.08
2023-07-06T03:04:52.884Z,17.06
2023-07-06T03:05:54.474Z,17.03
2023-07-06T03:06:56.065Z,16.99
2023-07-06T03:07:57.677Z,16.93
2023-07-06T03:08:59.034Z,16.92
2023-07-06T03:10:00.491Z,16.89
2023-07-06T03:11:02.176Z,16.84
2023-07-06T03:12:04.264Z,16.82
2023-07-06T03:13:05.602Z,16.78
2023-07-06T03:14:07.031Z,16.78
2023-07-06T03:15:10.691Z,16.79
2023-07-06T03:16:12.111Z,16.78
2023-07-06T03:17:13.565Z,16.74
2023-07-06T03:18:14.893Z,16.69
2023-07-06T03:19:16.498Z,16.66
2023-07-06T03:20:20.545Z,16.63
2023-07-06T03:21:22.190Z,16.62
2023-07-06T03:22:25.055Z,16.63
2023-07-06T03:23:26.429Z,16.64
2023-07-06T03:24:27.776Z,16.61
2023-07-06T03:25:29.724Z,16.61
2023-07-06T03:26:31.101Z,16.59
2023-07-06T03:27:32.510Z,16.59
2023-07-06T03:28:33.930Z,16.57
2023-07-06T03:29:35.353Z,16.53
2023-07-06T03:30:36.788Z,16.53
2023-07-06T03:31:38.185Z,16.51
2023-07-06T03:32:39.998Z,16.48
2023-07-06T03:33:41.858Z,16.46
2023-07-06T03:34:43.219Z,16.43
2023-07-06T03:35:44.654Z,16.38
2023-07-06T03:36:46.156Z,16.36
2023-07-06T03:37:47.536Z,16.33
2023-07-06T03:38:50.518Z,16.33
2023-07-06T03:39:52.637Z,16.32
2023-07-06T03:40:54.811Z,16.29
2023-07-06T03:41:56.234Z,16.27
2023-07-06T03:42:58.365Z,16.26
2023-07-06T03:43:59.977Z,16.23
2023-07-06T03:45:01.610Z,16.23
2023-07-06T03:46:03.132Z,16.23
2023-07-06T03:47:04.830Z,16.23
2023-07-06T03:48:06.303Z,16.25
2023-07-06T03:49:08.048Z,16.26
2023-07-06T03:50:11.254Z,16.28
2023-07-06T03:51:13.454Z,16.25
2023-07-06T03:52:14.857Z,16.27
2023-07-06T03:53:16.191Z,16.25
2023-07-06T03:54:17.562Z,16.23
2023-07-06T03:55:22.712Z,16.19
2023-07-06T03:56:24.381Z,16.16
2023-07-06T03:57:25.925Z,16.16
2023-07-06T03:58:27.220Z,16.13
2023-07-06T03:59:28.556Z,16.12
2023-07-06T04:00:30.162Z,16.09
2023-07-06T04:01:32.034Z,16.11
2023-07-06T04:02:33.416Z,16.13
2023-07-06T04:03:34.797Z,16.12
2023-07-06T04:04:36.519Z,16.12
2023-07-06T04:05:40.355Z,16.12
2023-07-06T04:06:41.987Z,16.15
2023-07-06T04:07:44.020Z,16.15
2023-07-06T04:08:45.718Z,16.18
2023-07-06T04:09:47.089Z,16.19
2023-07-06T04:10:49.246Z,16.24
2023-07-06T04:11:50.609Z,16.26
2023-07-06T04:12:52.026Z,16.28
2023-07-06T04:13:53.445Z,16.33
2023-07-06T04:14:54.861Z,16.37
2023-07-06T04:15:56.903Z,16.44
2023-07-06T04:16:58.504Z,16.61
2023-07-06T04:17:59.990Z,16.84
2023-07-06T04:19:01.430Z,17.13
2023-07-06T04:20:06.790Z,17.35
2023-07-06T04:21:08.149Z,17.48
2023-07-06T04:22:09.559Z,17.49
2023-07-06T04:23:10.975Z,17.51
2023-07-06T04:24:12.374Z,17.66
2023-07-06T04:25:13.848Z,17.88
2023-07-06T04:26:20.956Z,18.00
2023-07-06T04:27:22.282Z,18.02
2023-07-06T04:28:23.652Z,18.00
2023-07-06T04:29:25.008Z,18.05
2023-07-06T04:30:29.790Z,18.13
2023-07-06T04:31:31.234Z,18.17
2023-07-06T04:32:32.761Z,18.20
2023-07-06T04:33:34.293Z,18.24
2023-07-06T04:34:35.666Z,18.24
2023-07-06T04:35:39.063Z,18.18
2023-07-06T04:36:41.686Z,18.12
2023-07-06T04:37:45.309Z,18.22
2023-07-06T04:38:46.898Z,18.43
2023-07-06T04:39:48.340Z,18.72
2023-07-06T04:40:51.910Z,18.95
2023-07-06T04:41:53.225Z,19.21
2023-07-06T04:42:55.691Z,19.57
2023-07-06T04:43:57.270Z,19.97
2023-07-06T04:44:58.572Z,20.58
2023-07-06T04:45:59.981Z,21.28
2023-07-06T04:47:01.446Z,21.90
2023-07-06T04:48:02.894Z,22.62
2023-07-06T04:49:04.320Z,23.45
2023-07-06T04:50:08.118Z,24.29
2023-07-06T04:51:09.482Z,25.09
2023-07-06T04:52:10.905Z,25.72
2023-07-06T04:53:12.243Z,26.43
2023-07-06T04:54:13.620Z,26.97
2023-07-06T04:55:15.108Z,27.55
2023-07-06T04:56:16.940Z,28.02
2023-07-06T04:57:18.248Z,28.56
2023-07-06T04:58:19.801Z,29.08
2023-07-06T04:59:21.200Z,29.07
2023-07-06T05:00:24.629Z,29.37
2023-07-06T05:01:26.138Z,29.83
2023-07-06T05:02:28.566Z,30.05
2023-07-06T05:03:29.983Z,30.42
2023-07-06T05:04:31.285Z,30.91
2023-07-06T05:05:35.382Z,31.04
2023-07-06T05:06:36.707Z,31.12
2023-07-06T05:07:38.891Z,31.29
2023-07-06T05:08:40.437Z,31.68
2023-07-06T05:09:42.090Z,32.08
2023-07-06T05:10:50.981Z,32.52
2023-07-06T05:11:52.306Z,32.82
2023-07-06T05:12:53.844Z,33.20
2023-07-06T05:13:55.265Z,33.43
2023-07-06T05:14:59.157Z,33.52
2023-07-06T05:16:00.558Z,33.91
2023-07-06T05:17:02.047Z,33.92
2023-07-06T05:18:06.987Z,34.11
2023-07-06T05:19:08.354Z,33.95
2023-07-06T05:20:12.024Z,33.98
2023-07-06T05:21:13.415Z,33.89
2023-07-06T05:22:16.045Z,33.93
2023-07-06T05:23:19.966Z,33.87
2023-07-06T05:24:22.516Z,34.00
2023-07-06T05:25:24.180Z,34.04
2023-07-06T05:26:25.560Z,34.18
2023-07-06T05:27:27.147Z,34.24
2023-07-06T05:28:28.457Z,34.55
2023-07-06T05:29:30.015Z,34.49
2023-07-06T05:30:31.422Z,34.84
2023-07-06T05:31:32.790Z,34.85
2023-07-06T05:32:34.403Z,35.12
2023-07-06T05:33:35.804Z,35.17
2023-07-06T05:34:37.361Z,35.23
2023-07-06T05:35:38.677Z,35.09
2023-07-06T05:36:40.108Z,35.24
2023-07-06T05:37:41.501Z,35.02
2023-07-06T05:38:42.851Z,34.88
2023-07-06T05:39:44.242Z,34.96
2023-07-06T05:40:45.747Z,34.87
2023-07-06T05:41:47.080Z,34.93
2023-07-06T05:42:48.513Z,35.11
2023-07-06T05:43:49.828Z,35.49
2023-07-06T05:44:51.137Z,35.46
2023-07-06T05:45:52.484Z,35.83
2023-07-06T05:46:54.081Z,35.94
2023-07-06T05:47:55.525Z,35.98
2023-07-06T05:48:57.017Z,35.96
2023-07-06T05:49:58.357Z,36.13
2023-07-06T05:50:59.714Z,35.51
2023-07-06T05:52:01.073Z,35.42
2023-07-06T05:53:02.396Z,35.61
2023-07-06T05:54:05.447Z,35.90
2023-07-06T05:55:07.591Z,36.29
2023-07-06T05:56:09.250Z,36.34
2023-07-06T05:57:10.774Z,36.12
2023-07-06T05:58:12.531Z,36.02
2023-07-06T05:59:13.859Z,36.16
2023-07-06T06:00:15.481Z,36.49
2023-07-06T06:01:19.583Z,36.72
2023-07-06T06:02:22.118Z,36.89
2023-07-06T06:03:23.675Z,37.02
2023-07-06T06:04:27.972Z,36.91
2023-07-06T06:05:29.401Z,36.73
2023-07-06T06:06:46.599Z,37.00
2023-07-06T06:07:48.046Z,37.08
2023-07-06T06:08:49.422Z,37.06
2023-07-06T06:09:50.894Z,36.83
2023-07-06T06:10:52.241Z,36.38
2023-07-06T06:11:53.656Z,36.59
2023-07-06T06:12:55.454Z,36.29
2023-07-06T06:13:56.864Z,35.32
2023-07-06T06:14:58.609Z,34.57
2023-07-06T06:16:00.182Z,34.11
2023-07-06T06:17:01.674Z,33.99
2023-07-06T06:18:04.849Z,33.75
2023-07-06T06:19:07.504Z,32.84
2023-07-06T06:20:09.041Z,32.33
2023-07-06T06:21:10.462Z,32.24
2023-07-06T06:22:11.840Z,31.61
2023-07-06T06:23:13.161Z,31.40
2023-07-06T06:24:14.504Z,31.98
2023-07-06T06:25:15.935Z,31.92
2023-07-06T06:26:17.275Z,31.66
2023-07-06T06:27:19.047Z,32.26
2023-07-06T06:28:20.406Z,33.02
2023-07-06T06:29:22.147Z,33.70
2023-07-06T06:30:23.536Z,34.07
2023-07-06T06:31:26.190Z,33.65
2023-07-06T06:32:27.678Z,33.22
2023-07-06T06:33:29.000Z,32.62
2023-07-06T06:34:30.343Z,32.44
2023-07-06T06:35:31.943Z,32.32
2023-07-06T06:36:33.372Z,32.70
2023-07-06T06:37:34.687Z,33.26
2023-07-06T06:38:36.023Z,34.03
2023-07-06T06:39:38.569Z,34.51
2023-07-06T06:40:39.900Z,34.83
2023-07-06T06:41:41.527Z,35.25
2023-07-06T06:42:43.470Z,35.70
2023-07-06T06:43:44.810Z,35.91
2023-07-06T06:44:46.322Z,35.68
2023-07-06T06:45:50.398Z,35.26
2023-07-06T06:46:51.825Z,35.11
2023-07-06T06:47:53.616Z,35.01
2023-07-06T06:48:54.993Z,34.69
2023-07-06T06:49:56.342Z,34.95
2023-07-06T06:50:57.811Z,35.23
2023-07-06T06:51:59.181Z,35.57
2023-07-06T06:53:00.591Z,35.58
2023-07-06T06:54:01.973Z,35.20
2023-07-06T06:55:03.924Z,35.53
2023-07-06T06:56:05.542Z,36.16
2023-07-06T06:57:06.982Z,36.63
2023-07-06T06:58:08.308Z,37.15
2023-07-06T06:59:09.842Z,37.28
2023-07-06T07:00:12.220Z,37.64
2023-07-06T07:01:13.982Z,37.62
2023-07-06T07:02:15.907Z,37.74
2023-07-06T07:03:17.310Z,37.90
2023-07-06T07:04:18.725Z,38.23
2023-07-06T07:05:20.145Z,38.25
2023-07-06T07:06:21.537Z,38.07
2023-07-06T07:07:22.924Z,37.87
2023-07-06T07:08:24.230Z,38.02
2023-07-06T07:09:25.603Z,38.20
2023-07-06T07:10:26.925Z,38.51
2023-07-06T07:11:28.260Z,38.51
2023-07-06T07:12:29.682Z,38.47
2023-07-06T07:13:31.152Z,38.50
2023-07-06T07:14:32.544Z,38.48
2023-07-06T07:15:33.912Z,38.52
2023-07-06T07:16:35.437Z,38.39
2023-07-06T07:17:37.940Z,37.89
2023-07-06T07:18:40.108Z,37.74
2023-07-06T07:19:42.073Z,37.37
2023-07-06T07:20:43.432Z,36.61
2023-07-06T07:21:44.797Z,36.89
2023-07-06T07:22:46.490Z,37.11
2023-07-06T07:23:50.209Z,36.81
2023-07-06T07:24:51.566Z,36.47
2023-07-06T07:25:53.495Z,36.34
2023-07-06T07:26:54.828Z,36.22
2023-07-06T07:27:56.156Z,36.24
2023-07-06T07:28:58.217Z,36.83
2023-07-06T07:29:59.685Z,36.70
2023-07-06T07:31:01.812Z,35.42
2023-07-06T07:32:03.547Z,35.27
2023-07-06T07:33:05.054Z,35.42
2023-07-06T07:34:06.501Z,35.69
2023-07-06T07:35:08.277Z,35.72
2023-07-06T07:36:10.445Z,36.13
2023-07-06T07:37:11.849Z,36.30
2023-07-06T07:38:13.317Z,36.34
2023-07-06T07:39:14.756Z,36.65
2023-07-06T07:40:16.147Z,36.62
2023-07-06T07:41:19.128Z,36.68
2023-07-06T07:42:20.446Z,36.69
2023-07-06T07:43:22.645Z,36.56
2023-07-06T07:44:23.972Z,36.45
2023-07-06T07:45:25.292Z,36.45
2023-07-06T07:46:26.754Z,36.35
2023-07-06T07:47:28.243Z,36.16
2023-07-06T07:48:30.179Z,35.89
2023-07-06T07:49:31.692Z,35.69
2023-07-06T07:50:33.088Z,35.73
2023-07-06T07:51:34.398Z,35.41
2023-07-06T07:52:35.708Z,35.08
2023-07-06T07:53:40.419Z,34.99
2023-07-06T07:54:42.250Z,34.64
2023-07-06T07:55:43.592Z,34.41
2023-07-06T07:56:44.977Z,34.46
2023-07-06T07:57:46.350Z,34.37
2023-07-06T07:58:47.985Z,34.41
2023-07-06T07:59:49.450Z,34.51
2023-07-06T08:00:51.505Z,34.55
2023-07-06T08:01:53.461Z,34.40
2023-07-06T08:02:54.867Z,33.62
2023-07-06T08:03:56.555Z,32.98
2023-07-06T08:04:58.037Z,32.09
2023-07-06T08:06:03.569Z,31.58
2023-07-06T08:07:04.979Z,30.96
2023-07-06T08:08:06.385Z,30.61
2023-07-06T08:09:07.712Z,30.30
2023-07-06T08:10:09.687Z,30.35
2023-07-06T08:11:14.376Z,30.15
2023-07-06T08:12:15.881Z,29.77
2023-07-06T08:13:17.896Z,29.11
2023-07-06T08:14:40.613Z,28.86
2023-07-06T08:15:42.025Z,28.41
2023-07-06T08:16:43.412Z,27.82
2023-07-06T08:17:44.891Z,27.53
2023-07-06T08:18:46.499Z,27.53
2023-07-06T08:19:56.438Z,27.53
2023-07-06T08:21:38.207Z,27.24
2023-07-06T08:22:31.988Z,27.35
2023-07-06T08:23:33.324Z,27.47
2023-07-06T08:24:34.682Z,27.37
2023-07-06T08:25:41.460Z,27.46
2023-07-06T08:26:42.816Z,27.57
2023-07-06T08:27:44.217Z,27.68
2023-07-06T08:28:45.844Z,27.74
2023-07-06T08:29:47.227Z,27.77
2023-07-06T08:30:49.371Z,27.81
2023-07-06T08:31:51.310Z,28.06
2023-07-06T08:32:52.777Z,28.08
2023-07-06T08:33:54.153Z,28.20
2023-07-06T08:34:55.506Z,28.12
2023-07-06T08:35:56.908Z,28.27
2023-07-06T08:36:58.313Z,28.23
2023-07-06T08:37:59.841Z,28.27
2023-07-06T08:39:01.183Z,28.05
2023-07-06T08:40:02.741Z,27.85
2023-07-06T08:41:11.928Z,27.90
2023-07-06T08:42:17.108Z,27.84
2023-07-06T08:43:21.937Z,27.70
2023-07-06T08:44:23.413Z,27.49
2023-07-06T08:45:36.440Z,27.39
2023-07-06T08:46:42.385Z,27.24
2023-07-06T08:47:46.333Z,26.68
2023-07-06T08:48:47.715Z,26.87
2023-07-06T08:49:49.154Z,26.83
2023-07-06T08:50:54.591Z,26.88
2023-07-06T08:51:56.919Z,26.85
2023-07-06T08:52:58.750Z,26.82
2023-07-06T08:54:02.780Z,26.91
2023-07-06T08:55:12.475Z,26.71
2023-07-06T08:56:17.197Z,26.81
2023-07-06T08:57:25.327Z,26.81
2023-07-06T08:58:32.665Z,26.79
2023-07-06T08:59:41.310Z,26.65
2023-07-06T09:00:42.947Z,26.69
2023-07-06T09:01:47.432Z,26.65
2023-07-06T09:02:51.443Z,26.42
2023-07-06T09:03:57.470Z,26.43
2023-07-06T09:05:08.407Z,26.49
2023-07-06T09:06:13.711Z,26.31
2023-07-06T09:07:26.608Z,26.12
2023-07-06T09:08:29.413Z,25.98
2023-07-06T09:09:31.090Z,26.00
2023-07-06T09:10:32.554Z,26.10
2023-07-06T09:11:34.441Z,26.13
2023-07-06T09:12:35.952Z,26.08
2023-07-06T09:13:50.504Z,26.09
2023-07-06T09:14:53.740Z,26.22
2023-07-06T09:15:59.884Z,26.30
2023-07-06T09:17:04.887Z,26.22
2023-07-06T09:18:06.521Z,26.20
2023-07-06T09:19:09.892Z,26.00
2023-07-06T09:20:15.803Z,26.06
2023-07-06T09:21:25.136Z,26.27
2023-07-06T09:22:26.500Z,26.47
2023-07-06T09:23:28.141Z,26.43
2023-07-06T09:24:29.631Z,26.32
2023-07-06T09:25:36.668Z,26.28
2023-07-06T09:26:38.804Z,26.35
2023-07-06T09:27:40.443Z,26.29
2023-07-06T09:28:42.138Z,26.19
2023-07-06T09:29:43.591Z,25.96
2023-07-06T09:30:46.394Z,25.86
2023-07-06T09:31:50.333Z,25.87
2023-07-06T09:32:55.624Z,26.05
2023-07-06T09:34:00.524Z,26.01
2023-07-06T09:35:10.549Z,25.87
2023-07-06T09:36:17.339Z,25.65
2023-07-06T09:37:20.395Z,25.81
2023-07-06T09:38:22.061Z,25.83
2023-07-06T09:39:24.815Z,25.91
2023-07-06T09:40:33.595Z,25.99
2023-07-06T09:41:35.463Z,25.87
2023-07-06T09:42:37.301Z,25.86
2023-07-06T09:43:39.531Z,25.94
2023-07-06T09:44:41.841Z,26.14
2023-07-06T09:45:43.176Z,26.38
2023-07-06T09:46:44.494Z,26.54
2023-07-06T09:47:50.507Z,26.57
2023-07-06T09:48:51.930Z,26.49
2023-07-06T09:49:57.648Z,26.26
2023-07-06T09:51:13.332Z,26.14
2023-07-06T09:52:17.055Z,26.16
2023-07-06T09:53:27.306Z,26.22
2023-07-06T09:54:41.463Z,26.26
2023-07-06T09:55:42.819Z,26.27
2023-07-06T09:56:45.572Z,26.46
2023-07-06T09:57:47.500Z,26.60
2023-07-06T09:58:48.927Z,26.80
2023-07-06T09:59:50.812Z,26.89
2023-07-06T10:01:02.727Z,26.91
2023-07-06T10:02:20.319Z,26.89
2023-07-06T10:03:44.972Z,26.73
2023-07-06T10:05:06.694Z,26.55
2023-07-06T10:06:38.674Z,26.35
2023-07-06T10:07:54.816Z,26.28
2023-07-06T10:09:10.041Z,26.17
2023-07-06T10:10:20.254Z,26.26
2023-07-06T10:12:01.569Z,26.38
2023-07-06T10:13:10.682Z,26.55
2023-07-06T10:14:17.712Z,26.40
2023-07-06T10:15:32.900Z,26.53
2023-07-06T10:16:52.454Z,26.47
2023-07-06T10:18:27.530Z,26.33
2023-07-06T10:19:34.645Z,26.35
2023-07-06T10:20:40.074Z,26.28
2023-07-06T10:21:48.048Z,26.10
2023-07-06T10:23:14.533Z,25.79
2023-07-06T10:24:39.502Z,25.83
2023-07-06T10:26:30.027Z,26.19
2023-07-06T10:27:36.900Z,26.00
2023-07-06T10:28:43.395Z,26.09
2023-07-06T10:30:00.158Z,26.02
2023-07-06T10:31:04.949Z,26.10
2023-07-06T10:32:12.704Z,26.19
2023-07-06T10:33:52.469Z,26.12
2023-07-06T10:35:02.297Z,26.14
2023-07-06T10:36:07.093Z,26.41
2023-07-06T10:37:15.324Z,26.59
2023-07-06T10:38:17.992Z,26.79
2023-07-06T10:39:25.002Z,27.02
2023-07-06T10:40:28.723Z,27.06
2023-07-06T10:41:32.914Z,26.65
2023-07-06T10:42:37.476Z,26.44
2023-07-06T10:43:41.112Z,26.61
2023-07-06T10:44:42.531Z,26.76
2023-07-06T10:45:57.658Z,27.02
2023-07-06T10:46:59.920Z,27.13
2023-07-06T10:48:26.320Z,27.20
2023-07-06T10:49:27.841Z,27.34
2023-07-06T10:50:29.275Z,27.35
2023-07-06T10:51:30.695Z,27.26
2023-07-06T10:52:33.593Z,27.06
2023-07-06T10:53:41.120Z,27.00
2023-07-06T10:54:48.044Z,26.77
2023-07-06T10:56:08.105Z,26.64
2023-07-06T10:57:11.691Z,26.75
2023-07-06T10:58:30.617Z,26.47
2023-07-06T10:59:42.127Z,25.92
2023-07-06T11:00:45.020Z,25.63
2023-07-06T11:01:48.458Z,25.49
2023-07-06T11:02:56.015Z,25.50
2023-07-06T11:03:58.641Z,25.60
2023-07-06T11:05:09.949Z,25.63
2023-07-06T11:06:18.142Z,25.96
2023-07-06T11:07:39.369Z,25.99
2023-07-06T11:09:20.289Z,25.98
2023-07-06T11:10:36.948Z,26.26
2023-07-06T11:12:05.699Z,26.54
2023-07-06T11:13:07.168Z,26.80
2023-07-06T11:14:24.902Z,27.03
2023-07-06T11:15:37.565Z,26.90
2023-07-06T11:17:04.139Z,26.99
2023-07-06T11:18:28.326Z,27.05
2023-07-06T11:19:57.008Z,27.42
2023-07-06T11:21:07.262Z,27.48
2023-07-06T11:22:16.498Z,27.48
2023-07-06T11:23:21.812Z,27.42
2023-07-06T11:24:33.179Z,27.35
2023-07-06T11:25:36.281Z,27.58
2023-07-06T11:26:54.627Z,27.91
2023-07-06T11:28:02.079Z,28.22
2023-07-06T11:29:04.017Z,28.49
2023-07-06T11:30:27.859Z,28.55
2023-07-06T11:31:57.535Z,28.52
2023-07-06T11:33:30.236Z,28.60
2023-07-06T11:35:08.633Z,28.80
2023-07-06T11:36:39.757Z,29.19
2023-07-06T11:38:24.204Z,28.97
2023-07-06T11:39:40.205Z,28.51
2023-07-06T11:41:08.424Z,28.24
2023-07-06T11:42:35.276Z,28.44
2023-07-06T11:43:57.633Z,28.83
2023-07-06T11:45:05.194Z,28.98
2023-07-06T11:46:06.800Z,28.89
2023-07-06T11:47:19.211Z,28.81
2023-07-06T11:48:59.726Z,28.74
2023-07-06T11:50:06.992Z,28.88
2023-07-06T11:51:09.837Z,28.70
2023-07-06T11:52:16.282Z,28.64
2023-07-06T11:53:19.448Z,28.61
2023-07-06T11:54:22.463Z,28.26
2023-07-06T11:55:24.400Z,28.17
2023-07-06T11:56:30.902Z,28.35
2023-07-06T11:57:33.988Z,28.16
2023-07-06T11:58:43.380Z,28.09
2023-07-06T11:59:46.695Z,27.79
2023-07-06T12:00:50.604Z,27.56
2023-07-06T12:01:56.989Z,27.53
2023-07-06T12:03:00.800Z,27.57
2023-07-06T12:04:04.683Z,27.56
2023-07-06T12:05:24.390Z,27.59
2023-07-06T12:06:27.143Z,27.60
2023-07-06T12:07:33.349Z,27.46
2023-07-06T12:08:37.413Z,27.36
2023-07-06T12:09:38.790Z,27.41
2023-07-06T12:10:40.722Z,27.44
2023-07-06T12:11:42.129Z,27.56
2023-07-06T12:12:45.200Z,27.55
2023-07-06T12:13:51.244Z,27.42
2023-07-06T12:14:54.792Z,27.48
2023-07-06T12:16:03.891Z,27.48
2023-07-06T12:17:06.510Z,27.07
2023-07-06T12:18:16.229Z,26.86
2023-07-06T12:19:17.807Z,26.48
2023-07-06T12:20:21.275Z,26.33
2023-07-06T12:21:35.944Z,26.49
2023-07-06T12:22:51.886Z,26.76
2023-07-06T12:23:53.656Z,27.03
2023-07-06T12:24:56.036Z,27.25
2023-07-06T12:25:59.394Z,27.42
2023-07-06T12:27:04.240Z,27.77
2023-07-06T12:28:11.319Z,27.86
2023-07-06T12:29:15.294Z,28.01
2023-07-06T12:30:16.717Z,28.05
2023-07-06T12:31:18.098Z,28.32
2023-07-06T12:32:24.833Z,28.52
2023-07-06T12:33:26.581Z,28.80
2023-07-06T12:34:32.577Z,29.02
2023-07-06T12:35:34.347Z,29.30
2023-07-06T12:36:38.773Z,29.45
2023-07-06T12:37:42.807Z,29.75
2023-07-06T12:38:44.242Z,29.97
2023-07-06T12:39:49.221Z,29.96
2023-07-06T12:40:51.428Z,29.76
2023-07-06T12:41:53.029Z,29.98
2023-07-06T12:42:55.364Z,29.98
2023-07-06T12:43:56.948Z,30.02
2023-07-06T12:44:58.457Z,30.01
2023-07-06T12:46:00.562Z,30.15
2023-07-06T12:47:39.167Z,30.19
2023-07-06T12:48:48.546Z,30.25
2023-07-06T12:49:56.925Z,30.29
2023-07-06T12:50:58.871Z,30.40
2023-07-06T12:52:00.601Z,30.38
2023-07-06T12:53:25.319Z,30.31
2023-07-06T12:54:29.389Z,30.24
2023-07-06T12:55:35.364Z,30.34
2023-07-06T12:56:39.692Z,30.35
2023-07-06T12:57:42.964Z,30.63
2023-07-06T12:59:02.100Z,30.78
2023-07-06T13:00:25.056Z,30.76
2023-07-06T13:01:33.158Z,30.84
2023-07-06T13:02:38.426Z,30.72
2023-07-06T13:03:49.030Z,30.87
2023-07-06T13:04:51.931Z,30.65
2023-07-06T13:05:55.362Z,30.00
2023-07-06T13:06:57.046Z,29.85
2023-07-06T13:07:58.438Z,29.74
2023-07-06T13:09:02.494Z,29.77
2023-07-06T13:10:04.130Z,29.84
2023-07-06T13:11:10.078Z,29.80
2023-07-06T13:12:21.930Z,29.81
2023-07-06T13:13:23.604Z,30.00
2023-07-06T13:14:31.993Z,29.77
2023-07-06T13:15:41.532Z,30.02
2023-07-06T13:16:45.371Z,30.17
2023-07-06T13:17:54.116Z,30.37
2023-07-06T13:18:55.693Z,30.28
2023-07-06T13:19:58.475Z,30.50
2023-07-06T13:21:01.095Z,30.48
2023-07-06T13:22:03.971Z,30.72
2023-07-06T13:23:05.319Z,30.48
2023-07-06T13:24:10.463Z,30.23
2023-07-06T13:25:17.532Z,30.24
2023-07-06T13:26:18.923Z,30.24
2023-07-06T13:27:21.310Z,30.29
2023-07-06T13:28:23.776Z,30.12
2023-07-06T13:29:25.178Z,29.89
2023-07-06T13:30:27.208Z,29.16
2023-07-06T13:31:37.229Z,28.70
2023-07-06T13:32:46.929Z,28.54
2023-07-06T13:33:48.532Z,28.58
2023-07-06T13:34:50.074Z,28.73
2023-07-06T13:35:51.465Z,28.95
2023-07-06T13:36:54.406Z,29.11
2023-07-06T13:37:56.069Z,29.28
2023-07-06T13:38:57.422Z,29.56
2023-07-06T13:39:59.067Z,30.05
2023-07-06T13:41:02.770Z,30.02
2023-07-06T13:42:04.486Z,30.28
2023-07-06T13:43:14.724Z,30.27
2023-07-06T13:44:17.569Z,30.43
2023-07-06T13:45:23.712Z,30.62
2023-07-06T13:46:25.214Z,30.79
2023-07-06T13:47:29.396Z,30.85
2023-07-06T13:48:30.834Z,30.53
2023-07-06T13:49:32.271Z,30.42
2023-07-06T13:50:37.707Z,30.26
2023-07-06T13:51:39.158Z,30.33
2023-07-06T13:52:40.706Z,30.40
2023-07-06T13:53:43.763Z,30.44
2023-07-06T13:54:45.384Z,30.48